Time;durP1;ratioP1;P1;durP2;ratioP2;P2;SDS_P1;SDS_P2;PMS_P1;PMS_P2;Temp;Humidity;BMP_temperature;BMP_pressure;BME280_temperature;BME280_humidity;BME280_pressure;Samples;Min_cycle;Max_cycle;Signal;HPM_P1;HPM_P2
2022/01/22 00:00:08;;;;;;;12.53;8.37;;;;;;;;;;5060531;28;20202;-80
2022/01/22 00:02:35;;;;;;;14.47;9.50;;;;;;;;;;5067353;28;20233;-80
2022/01/22 00:05:02;;;;;;;12.63;8.30;;;;;;;;;;5080126;28;20263;-80
2022/01/22 00:07:29;;;;;;;14.60;8.30;;;;;;;;;;5075260;28;20241;-79
2022/01/22 00:10:00;;;;;;;11.37;8.53;;;;;;;;;;5067137;28;20201;-79
2022/01/22 00:12:45;;;;;;;14.33;8.53;;;;;;;;;;5053506;28;20243;-79
2022/01/22 00:15:14;;;;;;;13.00;8.53;;;;;;;;;;5054105;28;20214;-79
2022/01/22 00:17:41;;;;;;;15.93;9.13;;;;;;;;;;5053406;28;20246;-79
2022/01/22 00:20:09;;;;;;;13.67;8.80;;;;;;;;;;5054240;28;20208;-79
2022/01/22 00:22:37;;;;;;;13.57;8.63;;;;;;;;;;5062678;28;20649;-79
2022/01/22 00:25:08;;;;;;;11.87;8.63;;;;;;;;;;5073780;28;20739;-79
2022/01/22 00:27:35;;;;;;;6.83;5.87;;;;;;;;;;5073603;28;20760;-79
2022/01/22 00:30:02;;;;;;;15.93;8.47;;;;;;;;;;5074174;28;20206;-79
2022/01/22 00:32:31;;;;;;;11.03;8.50;;;;;;;;;;5073503;28;20238;-79
2022/01/22 00:34:58;;;;;;;8.60;6.70;;;;;;;;;;5063575;28;20214;-78
2022/01/22 00:37:25;;;;;;;16.63;8.00;;;;;;;;;;5053099;28;20246;-79
2022/01/22 00:39:53;;;;;;;13.87;8.63;;;;;;;;;;5055706;28;20202;-79
2022/01/22 00:42:21;;;;;;;17.37;8.83;;;;;;;;;;5053262;28;20608;-79
2022/01/22 00:44:51;;;;;;;9.53;7.07;;;;;;;;;;5053612;28;20576;-79
2022/01/22 00:47:18;;;;;;;11.70;7.90;;;;;;;;;;5055505;28;20231;-79
2022/01/22 00:49:47;;;;;;;13.63;7.30;;;;;;;;;;5053508;28;20837;-79
2022/01/22 00:52:15;;;;;;;14.07;7.50;;;;;;;;;;5053047;28;20243;-79
2022/01/22 00:54:42;;;;;;;9.83;7.23;;;;;;;;;;5053327;28;20715;-78
2022/01/22 00:57:09;;;;;;;7.83;6.37;;;;;;;;;;5061887;28;20241;-79
2022/01/22 00:59:36;;;;;;;10.07;6.47;;;;;;;;;;5072532;28;20211;-78
2022/01/22 01:02:03;;;;;;;10.07;5.80;;;;;;;;;;5072641;28;20553;-78
2022/01/22 01:04:34;;;;;;;7.87;5.27;;;;;;;;;;5073079;28;20212;-79
2022/01/22 01:07:03;;;;;;;8.43;6.40;;;;;;;;;;5072806;28;20233;-79
2022/01/22 01:09:31;;;;;;;8.57;5.03;;;;;;;;;;5061765;28;20195;-79
2022/01/22 01:12:02;;;;;;;8.13;5.13;;;;;;;;;;5034276;28;20582;-79
2022/01/22 01:14:35;;;;;;;7.43;4.77;;;;;;;;;;5052770;28;20699;-79
2022/01/22 01:17:11;;;;;;;10.17;5.40;;;;;;;;;;5052454;28;20218;-79
2022/01/22 01:33:27;;;;;;;6.27;4.97;;;;;;;;;;5051959;28;20747;-78
2022/01/22 01:35:54;;;;;;;6.83;4.03;;;;;;;;;;5052599;28;20776;-78
2022/01/22 01:38:24;;;;;;;4.17;3.70;;;;;;;;;;5058450;28;20244;-79
2022/01/22 01:40:59;;;;;;;6.23;3.83;;;;;;;;;;5072864;28;20585;-79
2022/01/22 01:43:32;;;;;;;12.07;4.17;;;;;;;;;;5071950;28;20235;-79
2022/01/22 01:45:59;;;;;;;5.77;4.27;;;;;;;;;;5072379;28;20265;-79
2022/01/22 01:48:30;;;;;;;6.53;4.27;;;;;;;;;;5071812;28;20735;-78
2022/01/22 01:50:59;;;;;;;5.40;4.00;;;;;;;;;;5072420;28;20304;-78
2022/01/22 01:53:44;;;;;;;6.43;4.07;;;;;;;;;;5073697;28;20298;-79
2022/01/22 01:58:54;;;;;;;5.67;3.47;;;;;;;;;;5071282;28;20234;-79
2022/01/22 02:01:21;;;;;;;6.33;3.53;;;;;;;;;;5065044;28;20274;-79
2022/01/22 02:03:49;;;;;;;14.43;3.60;;;;;;;;;;5055541;28;20231;-79
2022/01/22 02:06:16;;;;;;;6.00;3.10;;;;;;;;;;5071172;28;20235;-79
2022/01/22 02:08:44;;;;;;;6.90;4.13;;;;;;;;;;5071849;28;20236;-79
2022/01/22 02:11:13;;;;;;;6.37;3.90;;;;;;;;;;5072306;28;20227;-79
2022/01/22 02:13:47;;;;;;;6.70;3.43;;;;;;;;;;5072878;28;20684;-78
2022/01/22 02:24:38;;;;;;;7.03;3.53;;;;;;;;;;5072600;28;20211;-79
2022/01/22 02:27:05;;;;;;;5.10;3.83;;;;;;;;;;5069388;28;20251;-79
2022/01/22 02:29:32;;;;;;;6.73;3.50;;;;;;;;;;5061615;28;20200;-79
2022/01/22 02:32:18;;;;;;;7.47;3.97;;;;;;;;;;5051361;28;20209;-79
2022/01/22 02:34:51;;;;;;;5.60;3.77;;;;;;;;;;5051888;28;20216;-78
2022/01/22 02:37:22;;;;;;;6.53;3.93;;;;;;;;;;5051529;28;20255;-79
2022/01/22 02:40:00;;;;;;;6.07;3.60;;;;;;;;;;5051958;28;20210;-79
2022/01/22 02:42:30;;;;;;;8.40;3.97;;;;;;;;;;5051220;28;20238;-79
2022/01/22 02:44:58;;;;;;;5.27;4.13;;;;;;;;;;5051750;28;20298;-79
2022/01/22 02:47:25;;;;;;;8.47;2.90;;;;;;;;;;5051199;28;20240;-79
2022/01/22 02:49:52;;;;;;;5.47;3.90;;;;;;;;;;5051633;28;20212;-79
2022/01/22 02:52:21;;;;;;;6.43;4.07;;;;;;;;;;5051197;28;20236;-79
2022/01/22 02:54:49;;;;;;;4.63;3.90;;;;;;;;;;5060317;28;20223;-79
2022/01/22 02:57:16;;;;;;;7.27;3.70;;;;;;;;;;5071105;28;20234;-79
2022/01/22 02:59:43;;;;;;;7.73;3.63;;;;;;;;;;5071962;28;20211;-79
2022/01/22 03:02:12;;;;;;;4.93;3.50;;;;;;;;;;5070082;28;20239;-79
2022/01/22 03:04:39;;;;;;;10.27;4.70;;;;;;;;;;5051302;28;20206;-79
2022/01/22 03:07:06;;;;;;;6.33;3.80;;;;;;;;;;5050971;28;20240;-79
2022/01/22 03:09:40;;;;;;;6.97;3.27;;;;;;;;;;5051509;28;20214;-79
2022/01/22 03:12:30;;;;;;;6.13;4.00;;;;;;;;;;5050949;28;20234;-79
2022/01/22 03:15:29;;;;;;;3.60;2.83;;;;;;;;;;5051619;28;20294;-79
2022/01/22 03:18:01;;;;;;;4.93;3.87;;;;;;;;;;5050905;28;20617;-79
2022/01/22 03:20:44;;;;;;;5.27;4.20;;;;;;;;;;5062837;28;20215;-79
2022/01/22 03:23:12;;;;;;;6.37;3.77;;;;;;;;;;5071442;28;20237;-79
2022/01/22 03:28:29;;;;;;;8.27;4.00;;;;;;;;;;5074648;28;20238;-78
2022/01/22 03:30:56;;;;;;;7.17;3.50;;;;;;;;;;5075330;28;20214;-78
2022/01/22 03:33:24;;;;;;;6.97;4.30;;;;;;;;;;5075641;28;20239;-78
2022/01/22 03:35:55;;;;;;;5.87;4.17;;;;;;;;;;5074754;28;20602;-78
2022/01/22 03:38:22;;;;;;;7.00;4.23;;;;;;;;;;5074448;28;20705;-79
2022/01/22 03:40:51;;;;;;;8.50;4.70;;;;;;;;;;5074807;28;20240;-79
2022/01/22 03:43:18;;;;;;;5.77;4.00;;;;;;;;;;5074314;28;20242;-79
2022/01/22 03:45:46;;;;;;;7.00;5.00;;;;;;;;;;5067232;28;20216;-80
2022/01/22 03:48:13;;;;;;;10.00;4.60;;;;;;;;;;5060544;28;20231;-80
2022/01/22 03:50:40;;;;;;;6.70;4.70;;;;;;;;;;5060158;28;20211;-80
2022/01/22 03:53:07;;;;;;;9.37;4.50;;;;;;;;;;5059936;28;20244;-80
2022/01/22 03:55:45;;;;;;;6.57;4.63;;;;;;;;;;5059519;28;20662;-80
2022/01/22 03:58:13;;;;;;;10.80;5.53;;;;;;;;;;5059589;28;20236;-80
2022/01/22 04:00:40;;;;;;;7.50;5.10;;;;;;;;;;5059274;28;20212;-80
2022/01/22 04:08:39;;;;;;;8.20;5.10;;;;;;;;;;5058914;28;20229;-80
2022/01/22 04:11:10;;;;;;;5.33;4.83;;;;;;;;;;5059353;28;20207;-79
2022/01/22 04:13:38;;;;;;;8.97;6.07;;;;;;;;;;5058906;28;20243;-80
2022/01/22 04:16:07;;;;;;;6.13;4.87;;;;;;;;;;5059536;28;20237;-79
2022/01/22 04:27:08;;;;;;;10.03;5.73;;;;;;;;;;5058619;28;20231;-80
2022/01/22 04:29:36;;;;;;;8.47;5.63;;;;;;;;;;5059556;28;20665;-80
2022/01/22 04:32:04;;;;;;;6.70;6.00;;;;;;;;;;5058965;28;20591;-80
2022/01/22 04:34:31;;;;;;;9.80;6.00;;;;;;;;;;5059321;28;20208;-80
2022/01/22 04:36:58;;;;;;;7.90;5.23;;;;;;;;;;5059416;28;20246;-80
2022/01/22 04:39:26;;;;;;;9.07;5.37;;;;;;;;;;5061767;28;20228;-80
2022/01/22 04:41:55;;;;;;;8.40;5.20;;;;;;;;;;5067119;28;20269;-80
2022/01/22 04:44:25;;;;;;;6.73;5.00;;;;;;;;;;5060294;28;20232;-79
2022/01/22 04:47:00;;;;;;;10.07;5.33;;;;;;;;;;5059370;28;20254;-79
2022/01/22 04:52:39;;;;;;;9.50;4.57;;;;;;;;;;5059420;28;20238;-80
2022/01/22 04:55:06;;;;;;;12.10;5.60;;;;;;;;;;5059444;28;20212;-80
2022/01/22 04:57:34;;;;;;;6.50;4.33;;;;;;;;;;5059151;28;20643;-80
2022/01/22 05:00:02;;;;;;;10.40;4.73;;;;;;;;;;5073829;28;20238;-80
2022/01/22 05:02:30;;;;;;;8.37;4.90;;;;;;;;;;5078309;28;20233;-80
2022/01/22 05:07:26;;;;;;;6.77;4.57;;;;;;;;;;5073983;28;20222;-79
2022/01/22 05:09:53;;;;;;;10.33;4.83;;;;;;;;;;5076130;28;20566;-80
2022/01/22 05:12:20;;;;;;;7.97;4.67;;;;;;;;;;5074889;28;20245;-80
2022/01/22 05:14:47;;;;;;;9.27;5.03;;;;;;;;;;5076476;28;20208;-80
2022/01/22 05:17:14;;;;;;;6.97;5.00;;;;;;;;;;5075535;28;20692;-80
2022/01/22 05:19:50;;;;;;;7.43;4.80;;;;;;;;;;5075915;28;20235;-79
2022/01/22 05:22:30;;;;;;;10.27;4.03;;;;;;;;;;5075306;28;20308;-80
2022/01/22 05:25:02;;;;;;;7.03;4.20;;;;;;;;;;5075898;28;20548;-79
2022/01/22 05:30:36;;;;;;;9.00;4.43;;;;;;;;;;5074529;28;20216;-80
2022/01/22 05:33:14;;;;;;;6.00;4.70;;;;;;;;;;5075210;28;20237;-80
2022/01/22 05:38:30;;;;;;;6.83;4.43;;;;;;;;;;5076213;28;20308;-80
2022/01/22 05:40:57;;;;;;;4.07;3.77;;;;;;;;;;5074635;28;20208;-80
2022/01/22 05:43:24;;;;;;;4.77;4.00;;;;;;;;;;5073842;28;20248;-80
2022/01/22 05:45:51;;;;;;;9.23;4.30;;;;;;;;;;5074349;28;20323;-80
2022/01/22 05:48:18;;;;;;;11.90;5.17;;;;;;;;;;5074506;28;20234;-80
2022/01/22 05:50:51;;;;;;;6.63;4.43;;;;;;;;;;5075268;28;20225;-80
2022/01/22 05:53:33;;;;;;;8.67;5.53;;;;;;;;;;5073147;28;20303;-80
2022/01/22 06:01:30;;;;;;;7.07;5.07;;;;;;;;;;5058069;28;20263;-80
2022/01/22 06:03:58;;;;;;;5.80;4.63;;;;;;;;;;5057954;28;20244;-80
2022/01/22 06:06:26;;;;;;;9.73;5.30;;;;;;;;;;5056083;28;20242;-80
2022/01/22 06:08:54;;;;;;;6.27;4.47;;;;;;;;;;5073090;28;20218;-80
2022/01/22 06:11:24;;;;;;;7.93;5.97;;;;;;;;;;5074005;28;20302;-81
2022/01/22 06:13:52;;;;;;;6.20;4.50;;;;;;;;;;5075204;28;20612;-80
2022/01/22 06:16:21;;;;;;;8.10;5.30;;;;;;;;;;5074378;28;20709;-80
2022/01/22 06:18:48;;;;;;;10.03;4.73;;;;;;;;;;5073935;28;20246;-80
2022/01/22 06:21:15;;;;;;;5.40;4.90;;;;;;;;;;5075523;28;20672;-80
2022/01/22 06:23:45;;;;;;;6.87;4.57;;;;;;;;;;5075767;28;20244;-80
2022/01/22 06:26:13;;;;;;;6.07;4.50;;;;;;;;;;5076480;28;20229;-79
2022/01/22 06:28:41;;;;;;;6.87;4.70;;;;;;;;;;5074779;28;20233;-80
2022/01/22 06:31:08;;;;;;;6.77;5.03;;;;;;;;;;5074766;28;20212;-80
2022/01/22 06:33:35;;;;;;;7.07;4.73;;;;;;;;;;5073538;28;20235;-80
2022/01/22 06:36:02;;;;;;;6.10;4.43;;;;;;;;;;5055239;28;20224;-80
2022/01/22 06:38:29;;;;;;;4.30;3.73;;;;;;;;;;5054955;28;20719;-80
2022/01/22 06:43:43;;;;;;;5.80;4.70;;;;;;;;;;5051412;28;20242;-80
2022/01/22 06:46:10;;;;;;;7.97;4.80;;;;;;;;;;5052203;28;20615;-80
2022/01/22 06:48:37;;;;;;;11.43;4.97;;;;;;;;;;5051201;28;20235;-80
2022/01/22 06:51:04;;;;;;;6.70;4.50;;;;;;;;;;5052195;28;20212;-80
2022/01/22 06:53:35;;;;;;;5.00;4.40;;;;;;;;;;5051228;28;20243;-80
2022/01/22 06:56:05;;;;;;;6.10;4.63;;;;;;;;;;5051965;28;20241;-80
2022/01/22 06:58:32;;;;;;;6.30;4.80;;;;;;;;;;5055044;28;20247;-80
2022/01/22 07:00:59;;;;;;;8.40;4.90;;;;;;;;;;5077253;28;20204;-80
2022/01/22 07:03:26;;;;;;;6.60;4.70;;;;;;;;;;5079009;28;20242;-81
2022/01/22 07:05:53;;;;;;;8.80;5.50;;;;;;;;;;5079596;28;20232;-82
2022/01/22 07:08:20;;;;;;;6.77;4.97;;;;;;;;;;5078473;28;20227;-81
2022/01/22 07:10:47;;;;;;;7.03;4.90;;;;;;;;;;5079925;28;20207;-81
2022/01/22 07:13:16;;;;;;;6.23;4.80;;;;;;;;;;5079175;28;20239;-81
2022/01/22 07:15:43;;;;;;;5.83;4.87;;;;;;;;;;5078723;28;20230;-81
2022/01/22 07:18:12;;;;;;;4.63;4.23;;;;;;;;;;5076165;28;20237;-82
2022/01/22 07:20:40;;;;;;;8.87;5.20;;;;;;;;;;5076375;28;20284;-82
2022/01/22 07:23:16;;;;;;;6.67;4.37;;;;;;;;;;5075611;28;20245;-82
2022/01/22 07:25:44;;;;;;;6.83;4.90;;;;;;;;;;5077227;28;20266;-82
2022/01/22 07:28:11;;;;;;;5.90;4.50;;;;;;;;;;5075796;28;20757;-82
2022/01/22 07:30:40;;;;;;;8.27;5.27;;;;;;;;;;5077287;28;20201;-82
2022/01/22 07:33:07;;;;;;;6.43;4.60;;;;;;;;;;5080973;28;20234;-81
2022/01/22 07:35:35;;;;;;;5.10;4.50;;;;;;;;;;5078992;28;20221;-81
2022/01/22 07:38:02;;;;;;;9.13;6.77;;;;;;;;;;5078139;28;20228;-81
2022/01/22 07:40:29;;;;;;;7.17;4.90;;;;;;;;;;5078663;28;20221;-81
2022/01/22 07:42:57;;;;;;;8.30;5.13;;;;;;;;;;5078379;28;20260;-81
2022/01/22 07:45:24;;;;;;;7.63;5.30;;;;;;;;;;5079001;28;20228;-80
2022/01/22 07:47:52;;;;;;;7.27;5.33;;;;;;;;;;5076360;28;20238;-81
2022/01/22 07:50:19;;;;;;;9.77;5.00;;;;;;;;;;5077405;28;20205;-81
2022/01/22 07:52:47;;;;;;;5.93;5.33;;;;;;;;;;5076278;28;20238;-82
2022/01/22 07:55:15;;;;;;;6.70;5.53;;;;;;;;;;5077476;28;20230;-81
2022/01/22 07:57:44;;;;;;;6.67;5.53;;;;;;;;;;5076167;28;20320;-82
2022/01/22 08:00:11;;;;;;;6.40;5.30;;;;;;;;;;5079239;28;20232;-82
2022/01/22 08:02:40;;;;;;;9.10;6.07;;;;;;;;;;5077814;28;20232;-85
2022/01/22 08:05:09;;;;;;;8.07;6.30;;;;;;;;;;5075480;28;20690;-84
2022/01/22 08:07:38;;;;;;;7.10;6.03;;;;;;;;;;5078820;28;20320;-84
2022/01/22 08:10:08;;;;;;;7.63;6.50;;;;;;;;;;5077478;28;20244;-84
2022/01/22 08:12:36;;;;;;;8.23;5.67;;;;;;;;;;5074698;28;20620;-84
2022/01/22 08:15:03;;;;;;;10.50;6.00;;;;;;;;;;5075260;28;20206;-84
2022/01/22 08:17:30;;;;;;;6.40;5.60;;;;;;;;;;5074479;28;20243;-84
2022/01/22 08:19:57;;;;;;;9.87;6.30;;;;;;;;;;5075058;28;20222;-84
2022/01/22 08:22:25;;;;;;;7.20;5.50;;;;;;;;;;5074230;28;20599;-84
2022/01/22 08:24:54;;;;;;;9.83;6.10;;;;;;;;;;5074948;28;20198;-84
2022/01/22 08:27:34;;;;;;;9.20;5.60;;;;;;;;;;5074175;28;20252;-84
2022/01/22 08:30:01;;;;;;;8.30;6.13;;;;;;;;;;5075022;28;20211;-84
2022/01/22 08:32:45;;;;;;;8.90;5.73;;;;;;;;;;5074144;28;20603;-84
2022/01/22 08:37:58;;;;;;;8.47;6.37;;;;;;;;;;5074070;28;20306;-84
2022/01/22 08:40:25;;;;;;;6.47;5.80;;;;;;;;;;5074904;28;20565;-83
2022/01/22 08:42:59;;;;;;;7.20;5.97;;;;;;;;;;5061524;28;20244;-83
2022/01/22 08:45:26;;;;;;;11.53;7.27;;;;;;;;;;5075788;28;20233;-82
2022/01/22 08:47:53;;;;;;;6.57;5.63;;;;;;;;;;5081065;28;20244;-83
2022/01/22 08:50:22;;;;;;;9.33;6.30;;;;;;;;;;5076180;28;20242;-84
2022/01/22 08:52:49;;;;;;;9.20;6.67;;;;;;;;;;5073996;28;20289;-85
2022/01/22 08:55:18;;;;;;;7.00;6.07;;;;;;;;;;5074230;28;20188;-84
2022/01/22 08:57:49;;;;;;;8.50;6.43;;;;;;;;;;5073834;28;20234;-85
2022/01/22 09:00:17;;;;;;;7.27;6.07;;;;;;;;;;5073885;28;20307;-85
2022/01/22 09:02:45;;;;;;;9.37;6.13;;;;;;;;;;5073645;28;20231;-85
2022/01/22 09:05:12;;;;;;;7.50;6.27;;;;;;;;;;5073838;28;20234;-85
2022/01/22 09:07:39;;;;;;;7.23;5.73;;;;;;;;;;5073464;28;20242;-85
2022/01/22 09:10:07;;;;;;;7.60;5.97;;;;;;;;;;5073699;28;20208;-84
2022/01/22 09:12:35;;;;;;;8.27;6.73;;;;;;;;;;5062974;28;20236;-85
2022/01/22 09:15:02;;;;;;;8.50;6.33;;;;;;;;;;5073263;28;20215;-85
2022/01/22 09:17:29;;;;;;;8.33;6.73;;;;;;;;;;5073440;28;20233;-84
2022/01/22 09:19:58;;;;;;;8.80;6.20;;;;;;;;;;5073676;28;20232;-85
2022/01/22 09:22:25;;;;;;;6.80;5.77;;;;;;;;;;5065284;28;20364;-84
2022/01/22 09:24:54;;;;;;;9.90;6.53;;;;;;;;;;5053577;28;20688;-85
2022/01/22 09:27:22;;;;;;;12.50;6.87;;;;;;;;;;5053652;28;20238;-85
2022/01/22 09:29:50;;;;;;;9.03;6.30;;;;;;;;;;5075426;28;20204;-83
2022/01/22 09:32:17;;;;;;;9.57;6.57;;;;;;;;;;5078162;28;20240;-82
2022/01/22 09:34:44;;;;;;;7.20;5.70;;;;;;;;;;5071078;28;20198;-83
2022/01/22 09:37:11;;;;;;;8.73;6.13;;;;;;;;;;5079680;28;20248;-82
2022/01/22 09:39:38;;;;;;;9.17;6.83;;;;;;;;;;5078626;28;21010;-83
2022/01/22 09:42:05;;;;;;;6.80;6.07;;;;;;;;;;5076979;28;20233;-83
2022/01/22 09:44:33;;;;;;;7.27;6.07;;;;;;;;;;5079440;28;20224;-82
2022/01/22 09:47:01;;;;;;;6.27;5.67;;;;;;;;;;5075599;28;20303;-82
2022/01/22 09:49:29;;;;;;;7.93;5.87;;;;;;;;;;5076243;28;20214;-82
2022/01/22 09:51:56;;;;;;;7.93;5.77;;;;;;;;;;5076272;28;20202;-83
2022/01/22 09:54:23;;;;;;;11.67;7.10;;;;;;;;;;5076504;28;20205;-83
2022/01/22 09:56:50;;;;;;;8.47;5.83;;;;;;;;;;5076786;28;20283;-83
2022/01/22 09:59:17;;;;;;;6.37;5.30;;;;;;;;;;5071009;28;20209;-83
2022/01/22 10:01:44;;;;;;;6.70;6.03;;;;;;;;;;5075993;28;20220;-83
2022/01/22 10:04:13;;;;;;;9.33;6.07;;;;;;;;;;5078459;28;20208;-83
2022/01/22 10:06:49;;;;;;;10.10;6.37;;;;;;;;;;5079019;28;20235;-83
2022/01/22 10:09:25;;;;;;;6.93;5.47;;;;;;;;;;5078113;28;20267;-82
2022/01/22 10:12:07;;;;;;;7.30;5.93;;;;;;;;;;5080083;28;20212;-83
2022/01/22 10:14:34;;;;;;;11.13;6.70;;;;;;;;;;5078765;28;20216;-84
2022/01/22 10:17:01;;;;;;;6.13;4.77;;;;;;;;;;5075335;28;20717;-84
2022/01/22 10:19:30;;;;;;;6.50;5.90;;;;;;;;;;5056205;28;20201;-84
2022/01/22 10:21:58;;;;;;;6.43;5.17;;;;;;;;;;5052610;28;20212;-84
2022/01/22 10:24:34;;;;;;;7.80;5.93;;;;;;;;;;5053274;28;20256;-84
2022/01/22 10:27:26;;;;;;;6.97;5.90;;;;;;;;;;5053032;28;20289;-84
2022/01/22 10:29:55;;;;;;;7.47;6.20;;;;;;;;;;5053065;28;20285;-85
2022/01/22 10:32:27;;;;;;;8.40;6.20;;;;;;;;;;5051528;28;20237;-85
2022/01/22 10:35:05;;;;;;;6.00;5.40;;;;;;;;;;5052690;28;20201;-85
2022/01/22 10:37:32;;;;;;;6.37;5.77;;;;;;;;;;5052850;28;20252;-85
2022/01/22 10:40:18;;;;;;;8.27;6.00;;;;;;;;;;5055927;28;20218;-86
2022/01/22 10:42:45;;;;;;;6.53;5.50;;;;;;;;;;5071994;28;20889;-85
2022/01/22 10:45:19;;;;;;;6.67;5.43;;;;;;;;;;5072336;28;20216;-86
2022/01/22 10:47:46;;;;;;;6.37;5.57;;;;;;;;;;5071715;28;20239;-84
2022/01/22 10:50:22;;;;;;;5.53;5.03;;;;;;;;;;5072187;28;20192;-85
2022/01/22 10:52:50;;;;;;;7.77;5.70;;;;;;;;;;5073799;28;20716;-82
2022/01/22 10:55:17;;;;;;;6.77;6.07;;;;;;;;;;5078092;28;20217;-81
2022/01/22 10:57:59;;;;;;;7.03;6.33;;;;;;;;;;5073758;28;20237;-82
2022/01/22 11:00:26;;;;;;;7.40;5.53;;;;;;;;;;5075171;28;20225;-82
2022/01/22 11:02:53;;;;;;;8.10;6.67;;;;;;;;;;5074613;28;20255;-82
2022/01/22 11:05:37;;;;;;;7.93;6.53;;;;;;;;;;5075346;28;20237;-82
2022/01/22 11:08:12;;;;;;;6.83;5.83;;;;;;;;;;5077206;28;20296;-82
2022/01/22 11:10:40;;;;;;;8.50;6.57;;;;;;;;;;5077546;28;20185;-81
2022/01/22 11:13:07;;;;;;;7.23;6.37;;;;;;;;;;5077131;28;20259;-82
2022/01/22 11:15:35;;;;;;;8.33;6.40;;;;;;;;;;5078188;28;20258;-82
2022/01/22 11:18:02;;;;;;;7.30;6.50;;;;;;;;;;5077883;28;20245;-82
2022/01/22 11:20:31;;;;;;;7.17;6.37;;;;;;;;;;5077333;28;20704;-83
2022/01/22 11:23:00;;;;;;;6.63;6.03;;;;;;;;;;5076506;28;20241;-83
2022/01/22 11:25:27;;;;;;;7.67;6.10;;;;;;;;;;5075821;28;20248;-83
2022/01/22 11:27:54;;;;;;;7.30;6.47;;;;;;;;;;5075660;28;20240;-82
2022/01/22 11:30:25;;;;;;;8.40;6.57;;;;;;;;;;5076836;28;20390;-83
2022/01/22 11:32:54;;;;;;;7.90;6.43;;;;;;;;;;5084491;28;20253;-82
2022/01/22 11:35:22;;;;;;;7.17;6.47;;;;;;;;;;5078875;28;20235;-83
2022/01/22 11:37:51;;;;;;;6.90;6.20;;;;;;;;;;5078182;28;20241;-83
2022/01/22 11:40:20;;;;;;;6.63;6.03;;;;;;;;;;5071691;28;20226;-83
2022/01/22 11:42:57;;;;;;;7.03;6.07;;;;;;;;;;5076947;28;20233;-83
2022/01/22 11:45:25;;;;;;;10.60;6.37;;;;;;;;;;5080966;28;20274;-83
2022/01/22 11:48:07;;;;;;;6.50;5.90;;;;;;;;;;5081830;28;20328;-83
2022/01/22 11:50:35;;;;;;;7.93;6.77;;;;;;;;;;5077662;28;20201;-83
2022/01/22 11:53:22;;;;;;;7.23;6.27;;;;;;;;;;5075190;28;20605;-83
2022/01/22 11:56:04;;;;;;;8.47;7.03;;;;;;;;;;5074168;28;20622;-83
2022/01/22 11:58:32;;;;;;;7.10;6.40;;;;;;;;;;5072879;28;20261;-83
2022/01/22 12:00:59;;;;;;;7.33;6.33;;;;;;;;;;5074467;28;20225;-83
2022/01/22 12:03:26;;;;;;;7.20;6.47;;;;;;;;;;5074261;28;20241;-83
2022/01/22 12:06:07;;;;;;;7.70;6.70;;;;;;;;;;5074186;28;20241;-83
2022/01/22 12:08:49;;;;;;;6.70;6.00;;;;;;;;;;5074800;28;20233;-84
2022/01/22 12:14:42;;;;;;;7.87;6.83;;;;;;;;;;5074780;28;20217;-84
2022/01/22 12:17:14;;;;;;;6.20;5.60;;;;;;;;;;5074431;28;20237;-83
2022/01/22 12:19:52;;;;;;;7.00;5.70;;;;;;;;;;5075869;28;20278;-83
2022/01/22 12:22:31;;;;;;;6.50;5.90;;;;;;;;;;5075760;28;20239;-83
2022/01/22 12:24:58;;;;;;;6.50;5.87;;;;;;;;;;5074554;28;20220;-83
2022/01/22 12:27:44;;;;;;;7.77;6.97;;;;;;;;;;5074864;28;20359;-82
2022/01/22 12:30:13;;;;;;;6.33;5.43;;;;;;;;;;5055073;28;20205;-83
2022/01/22 12:32:51;;;;;;;6.60;5.10;;;;;;;;;;5065468;28;20235;-82
2022/01/22 12:35:19;;;;;;;6.37;5.60;;;;;;;;;;5061195;28;20235;-83
2022/01/22 12:37:52;;;;;;;6.17;5.43;;;;;;;;;;5060087;28;20242;-82
2022/01/22 12:40:28;;;;;;;6.07;5.47;;;;;;;;;;5056549;28;20630;-83
2022/01/22 12:43:03;;;;;;;5.77;5.27;;;;;;;;;;5055552;28;20248;-82
2022/01/22 12:45:33;;;;;;;6.23;5.63;;;;;;;;;;5054963;28;20233;-82
2022/01/22 12:48:01;;;;;;;6.37;5.70;;;;;;;;;;5054720;28;20241;-83
2022/01/22 12:50:30;;;;;;;7.17;5.57;;;;;;;;;;5055277;28;20203;-83
2022/01/22 12:53:03;;;;;;;5.97;5.37;;;;;;;;;;5056340;28;20233;-83
2022/01/22 12:55:49;;;;;;;6.97;5.60;;;;;;;;;;5057696;28;20226;-83
2022/01/22 12:58:23;;;;;;;6.37;5.33;;;;;;;;;;5055631;28;20237;-83
2022/01/22 13:00:53;;;;;;;5.20;4.70;;;;;;;;;;5056363;28;20232;-83
2022/01/22 13:03:33;;;;;;;4.50;4.20;;;;;;;;;;5055548;28;20238;-83
2022/01/22 13:06:00;;;;;;;5.07;4.57;;;;;;;;;;5055078;28;20245;-83
2022/01/22 13:08:28;;;;;;;4.93;4.43;;;;;;;;;;5054735;28;20256;-83
2022/01/22 13:10:58;;;;;;;4.97;4.57;;;;;;;;;;5061225;28;20201;-82
2022/01/22 13:13:25;;;;;;;4.53;4.13;;;;;;;;;;5075179;28;20743;-82
2022/01/22 13:16:02;;;;;;;5.10;4.60;;;;;;;;;;5077055;28;20370;-82
2022/01/22 13:18:40;;;;;;;5.33;4.53;;;;;;;;;;5077086;28;20247;-83
2022/01/22 13:21:07;;;;;;;5.77;4.90;;;;;;;;;;5074412;28;20213;-83
2022/01/22 13:23:34;;;;;;;5.33;4.83;;;;;;;;;;5074437;28;20241;-83
2022/01/22 13:26:01;;;;;;;5.83;4.93;;;;;;;;;;5074690;28;20229;-82
2022/01/22 13:28:31;;;;;;;5.07;4.63;;;;;;;;;;5074896;28;20233;-82
2022/01/22 13:31:03;;;;;;;4.87;4.47;;;;;;;;;;5076370;28;20488;-82
2022/01/22 13:33:38;;;;;;;3.90;3.60;;;;;;;;;;5075531;28;20731;-83
2022/01/22 13:36:15;;;;;;;5.57;3.70;;;;;;;;;;5074908;28;20378;-83
2022/01/22 13:39:01;;;;;;;4.43;4.03;;;;;;;;;;5075238;28;20236;-83
2022/01/22 13:49:52;;;;;;;3.10;2.83;;;;;;;;;;5075299;28;20215;-83
2022/01/22 13:52:20;;;;;;;3.53;3.23;;;;;;;;;;5073974;28;20229;-83
2022/01/22 13:54:48;;;;;;;4.13;3.57;;;;;;;;;;5074358;28;20275;-83
2022/01/22 13:57:16;;;;;;;3.50;3.20;;;;;;;;;;5074619;28;20587;-83
2022/01/22 13:59:44;;;;;;;3.37;3.17;;;;;;;;;;5075824;28;20208;-83
2022/01/22 14:02:15;;;;;;;4.23;3.47;;;;;;;;;;5075030;28;20248;-82
2022/01/22 14:04:44;;;;;;;3.50;3.20;;;;;;;;;;5069327;28;20198;-83
2022/01/22 14:07:17;;;;;;;3.40;3.10;;;;;;;;;;5061860;28;20243;-83
2022/01/22 14:09:51;;;;;;;3.87;3.57;;;;;;;;;;5073848;28;20205;-83
2022/01/22 14:12:18;;;;;;;3.73;3.40;;;;;;;;;;5074139;28;20667;-84
2022/01/22 14:14:55;;;;;;;3.70;3.40;;;;;;;;;;5074023;28;20202;-83
2022/01/22 14:17:24;;;;;;;4.40;3.33;;;;;;;;;;5074650;28;20264;-83
2022/01/22 14:19:58;;;;;;;4.30;3.60;;;;;;;;;;5073120;28;20201;-83
2022/01/22 14:22:27;;;;;;;3.60;3.30;;;;;;;;;;5072245;28;20320;-84
2022/01/22 14:25:09;;;;;;;3.60;3.30;;;;;;;;;;5072302;28;20201;-83
2022/01/22 14:27:36;;;;;;;5.07;3.47;;;;;;;;;;5071888;28;20237;-83
2022/01/22 14:30:03;;;;;;;3.50;3.20;;;;;;;;;;5072443;28;20209;-83
2022/01/22 14:32:30;;;;;;;4.87;3.40;;;;;;;;;;5072373;28;20241;-83
2022/01/22 14:34:59;;;;;;;4.00;3.50;;;;;;;;;;5073234;28;20561;-82
2022/01/22 14:37:30;;;;;;;3.90;3.60;;;;;;;;;;5072055;28;20237;-85
2022/01/22 14:45:30;;;;;;;4.17;3.73;;;;;;;;;;5071341;28;20220;-85
2022/01/22 14:47:58;;;;;;;4.70;3.73;;;;;;;;;;5071073;28;20620;-86
2022/01/22 14:50:25;;;;;;;5.20;4.53;;;;;;;;;;5072159;28;20229;-84
2022/01/22 14:52:56;;;;;;;6.93;5.57;;;;;;;;;;5071446;28;20237;-85
2022/01/22 14:55:23;;;;;;;5.20;4.20;;;;;;;;;;5079236;28;20217;-83
2022/01/22 14:57:51;;;;;;;4.23;3.83;;;;;;;;;;5071762;28;20236;-85
2022/01/22 15:00:18;;;;;;;4.87;3.80;;;;;;;;;;5071983;28;20622;-85
2022/01/22 15:02:46;;;;;;;3.83;3.53;;;;;;;;;;5070845;28;20248;-85
2022/01/22 15:05:14;;;;;;;4.77;4.37;;;;;;;;;;5071433;28;20209;-86
2022/01/22 15:07:42;;;;;;;4.40;3.90;;;;;;;;;;5071312;28;20705;-82
2022/01/22 15:10:11;;;;;;;6.43;4.93;;;;;;;;;;5071837;28;20212;-86
2022/01/22 15:12:39;;;;;;;4.87;4.33;;;;;;;;;;5067781;28;20233;-86
2022/01/22 15:15:07;;;;;;;9.70;4.53;;;;;;;;;;5070877;28;20209;-85
2022/01/22 15:17:53;;;;;;;6.63;4.33;;;;;;;;;;5071124;28;20332;-84
2022/01/22 15:20:21;;;;;;;6.03;4.47;;;;;;;;;;5073964;28;20220;-84
2022/01/22 15:22:48;;;;;;;6.30;4.70;;;;;;;;;;5074414;28;20725;-85
2022/01/22 15:25:16;;;;;;;7.53;4.80;;;;;;;;;;5075126;28;20205;-85
2022/01/22 15:27:43;;;;;;;5.50;4.90;;;;;;;;;;5075082;28;20923;-86
2022/01/22 15:30:19;;;;;;;4.27;3.87;;;;;;;;;;5074832;28;20680;-86
2022/01/22 15:32:54;;;;;;;5.00;4.40;;;;;;;;;;5074202;28;20316;-86
2022/01/22 15:35:21;;;;;;;4.37;3.70;;;;;;;;;;5074675;28;20242;-85
2022/01/22 15:37:51;;;;;;;4.53;3.63;;;;;;;;;;5074453;28;20233;-84
2022/01/22 15:40:20;;;;;;;4.10;3.70;;;;;;;;;;5075103;28;20205;-84
2022/01/22 15:42:47;;;;;;;4.33;3.93;;;;;;;;;;5067683;28;20233;-84
2022/01/22 15:45:14;;;;;;;3.80;3.50;;;;;;;;;;5074747;28;20205;-86
2022/01/22 15:47:41;;;;;;;4.43;3.60;;;;;;;;;;5072716;28;20249;-85
2022/01/22 15:50:09;;;;;;;4.17;3.77;;;;;;;;;;5074807;28;20673;-84
2022/01/22 15:52:36;;;;;;;6.60;4.03;;;;;;;;;;5074570;28;20237;-83
2022/01/22 15:55:08;;;;;;;5.13;4.63;;;;;;;;;;5074528;28;20209;-83
2022/01/22 15:57:36;;;;;;;5.27;4.77;;;;;;;;;;5074025;28;20721;-83
2022/01/22 16:00:04;;;;;;;5.03;4.53;;;;;;;;;;5067012;28;20230;-85
2022/01/22 16:02:31;;;;;;;8.13;5.10;;;;;;;;;;5053635;28;20613;-85
2022/01/22 16:04:59;;;;;;;6.93;5.17;;;;;;;;;;5054806;28;20240;-85
2022/01/22 16:07:26;;;;;;;6.90;5.33;;;;;;;;;;5053805;28;20258;-86
2022/01/22 16:09:55;;;;;;;6.63;5.63;;;;;;;;;;5054466;28;20236;-86
2022/01/22 16:12:23;;;;;;;7.63;5.47;;;;;;;;;;5053740;28;20233;-86
2022/01/22 16:14:52;;;;;;;5.53;4.77;;;;;;;;;;5054308;28;20252;-85
2022/01/22 16:17:19;;;;;;;8.10;5.73;;;;;;;;;;5069736;28;20233;-83